Granite Downs, Australia
Current Conditions -  °F | °C
As of 9:00 AM on Saturday 20 Dec 2014 (Local Time) from YCBP Reporting Station
Clear Clear  
Wind Chill: 82°   Ceiling: Unl
Heat Index: 82°   Visibility: NA
Dew Point: 37°   Wind: 16mph
Humidity: 20%   Direction: 70°ENE
Pressure: 30"   Gusts: NA
Location:  26.94°S, 133.49°E
Report Text: YCBP 192300Z AUTO 07014KT //// // NCD 28/03 Q1016
Loading
Personal Weather Stations






























Interactive Weather Map New forecast layout! Learn more

10-Day Weather Forecast

Advertisements
Track Severe Weather on mobile